sensor_id;sensor_type;location;lat;lon;timestamp;P1;durP1;ratioP1;P2;durP2;ratioP2
10565;SDS011;5331;48.148;16.326;2023-11-21T00:08:02;3.97;;;1.92;;
10565;SDS011;5331;48.148;16.326;2023-11-21T00:10:28;2.10;;;1.65;;
10565;SDS011;5331;48.148;16.326;2023-11-21T00:12:54;1.95;;;1.63;;
10565;SDS011;5331;48.148;16.326;2023-11-21T00:15:20;3.67;;;1.80;;
10565;SDS011;5331;48.148;16.326;2023-11-21T00:17:47;3.47;;;1.73;;
10565;SDS011;5331;48.148;16.326;2023-11-21T00:20:13;3.92;;;1.70;;
10565;SDS011;5331;48.148;16.326;2023-11-21T00:22:39;4.35;;;1.70;;
10565;SDS011;5331;48.148;16.326;2023-11-21T00:40:31;3.60;;;2.17;;
10565;SDS011;5331;48.148;16.326;2023-11-21T00:42:58;5.63;;;1.80;;
10565;SDS011;5331;48.148;16.326;2023-11-21T00:45:24;5.40;;;1.90;;
10565;SDS011;5331;48.148;16.326;2023-11-21T00:47:50;4.40;;;2.20;;
10565;SDS011;5331;48.148;16.326;2023-11-21T00:50:17;3.53;;;1.95;;
10565;SDS011;5331;48.148;16.326;2023-11-21T00:52:43;4.45;;;1.90;;
10565;SDS011;5331;48.148;16.326;2023-11-21T00:55:09;2.05;;;1.80;;
10565;SDS011;5331;48.148;16.326;2023-11-21T01:11:01;3.78;;;2.03;;
10565;SDS011;5331;48.148;16.326;2023-11-21T01:13:28;4.22;;;2.40;;
10565;SDS011;5331;48.148;16.326;2023-11-21T01:15:54;4.35;;;2.00;;
10565;SDS011;5331;48.148;16.326;2023-11-21T01:18:21;4.18;;;1.90;;
10565;SDS011;5331;48.148;16.326;2023-11-21T01:20:47;2.00;;;1.83;;
10565;SDS011;5331;48.148;16.326;2023-11-21T01:23:13;1.77;;;1.67;;
10565;SDS011;5331;48.148;16.326;2023-11-21T01:25:39;3.72;;;2.33;;
10565;SDS011;5331;48.148;16.326;2023-11-21T01:45:57;3.08;;;1.90;;
10565;SDS011;5331;48.148;16.326;2023-11-21T01:48:23;3.88;;;2.10;;
10565;SDS011;5331;48.148;16.326;2023-11-21T01:50:50;2.83;;;1.80;;
10565;SDS011;5331;48.148;16.326;2023-11-21T01:53:16;2.83;;;1.90;;
10565;SDS011;5331;48.148;16.326;2023-11-21T01:55:43;2.03;;;1.73;;
10565;SDS011;5331;48.148;16.326;2023-11-21T01:58:11;2.65;;;1.90;;
10565;SDS011;5331;48.148;16.326;2023-11-21T02:00:37;3.42;;;1.80;;
10565;SDS011;5331;48.148;16.326;2023-11-21T02:20:56;3.50;;;2.08;;
10565;SDS011;5331;48.148;16.326;2023-11-21T02:23:23;3.42;;;1.98;;
10565;SDS011;5331;48.148;16.326;2023-11-21T02:25:53;3.40;;;2.10;;
10565;SDS011;5331;48.148;16.326;2023-11-21T02:28:20;1.98;;;1.88;;
10565;SDS011;5331;48.148;16.326;2023-11-21T02:30:50;3.88;;;1.90;;
10565;SDS011;5331;48.148;16.326;2023-11-21T02:33:20;4.18;;;2.10;;
10565;SDS011;5331;48.148;16.326;2023-11-21T02:35:47;4.30;;;2.00;;
10565;SDS011;5331;48.148;16.326;2023-11-21T02:53:39;3.97;;;1.92;;
10565;SDS011;5331;48.148;16.326;2023-11-21T02:56:06;5.13;;;2.20;;
10565;SDS011;5331;48.148;16.326;2023-11-21T02:58:32;3.45;;;2.20;;
10565;SDS011;5331;48.148;16.326;2023-11-21T03:00:59;3.75;;;1.90;;
10565;SDS011;5331;48.148;16.326;2023-11-21T03:03:25;5.00;;;1.85;;
10565;SDS011;5331;48.148;16.326;2023-11-21T03:05:51;3.58;;;2.08;;
10565;SDS011;5331;48.148;16.326;2023-11-21T03:08:17;2.60;;;1.88;;
10565;SDS011;5331;48.148;16.326;2023-11-21T03:24:56;5.85;;;2.20;;
10565;SDS011;5331;48.148;16.326;2023-11-21T03:27:22;5.32;;;2.45;;
10565;SDS011;5331;48.148;16.326;2023-11-21T03:29:48;4.68;;;2.60;;
10565;SDS011;5331;48.148;16.326;2023-11-21T03:32:14;5.65;;;3.03;;
10565;SDS011;5331;48.148;16.326;2023-11-21T03:34:52;6.15;;;3.10;;
10565;SDS011;5331;48.148;16.326;2023-11-21T03:37:20;5.57;;;2.90;;
10565;SDS011;5331;48.148;16.326;2023-11-21T03:39:46;6.17;;;2.90;;
10565;SDS011;5331;48.148;16.326;2023-11-21T04:00:03;5.80;;;3.10;;
10565;SDS011;5331;48.148;16.326;2023-11-21T04:02:33;6.72;;;3.08;;
10565;SDS011;5331;48.148;16.326;2023-11-21T04:04:59;6.70;;;2.75;;
10565;SDS011;5331;48.148;16.326;2023-11-21T04:07:25;5.43;;;3.30;;
10565;SDS011;5331;48.148;16.326;2023-11-21T04:09:52;5.63;;;2.53;;
10565;SDS011;5331;48.148;16.326;2023-11-21T04:12:19;8.10;;;3.27;;
10565;SDS011;5331;48.148;16.326;2023-11-21T04:14:45;6.40;;;3.00;;
10565;SDS011;5331;48.148;16.326;2023-11-21T04:30:12;3.10;;;1.95;;
10565;SDS011;5331;48.148;16.326;2023-11-21T04:32:39;3.40;;;2.13;;
10565;SDS011;5331;48.148;16.326;2023-11-21T04:35:05;3.83;;;2.10;;
10565;SDS011;5331;48.148;16.326;2023-11-21T04:37:33;5.30;;;1.92;;
10565;SDS011;5331;48.148;16.326;2023-11-21T04:39:59;4.30;;;2.20;;
10565;SDS011;5331;48.148;16.326;2023-11-21T04:42:25;3.27;;;1.90;;
10565;SDS011;5331;48.148;16.326;2023-11-21T04:44:52;3.37;;;2.00;;
10565;SDS011;5331;48.148;16.326;2023-11-21T05:05:10;3.45;;;2.00;;
10565;SDS011;5331;48.148;16.326;2023-11-21T05:07:36;4.47;;;2.03;;
10565;SDS011;5331;48.148;16.326;2023-11-21T05:10:03;3.27;;;2.10;;
10565;SDS011;5331;48.148;16.326;2023-11-21T05:12:33;3.80;;;2.20;;
10565;SDS011;5331;48.148;16.326;2023-11-21T05:15:00;3.33;;;2.10;;
10565;SDS011;5331;48.148;16.326;2023-11-21T05:17:28;6.07;;;2.37;;
10565;SDS011;5331;48.148;16.326;2023-11-21T05:19:54;3.67;;;2.20;;
10565;SDS011;5331;48.148;16.326;2023-11-21T05:36:01;3.35;;;2.10;;
10565;SDS011;5331;48.148;16.326;2023-11-21T05:38:27;3.33;;;2.00;;
10565;SDS011;5331;48.148;16.326;2023-11-21T05:40:53;2.67;;;2.00;;
10565;SDS011;5331;48.148;16.326;2023-11-21T05:43:19;2.40;;;1.93;;
10565;SDS011;5331;48.148;16.326;2023-11-21T05:45:45;3.30;;;1.70;;
10565;SDS011;5331;48.148;16.326;2023-11-21T05:48:11;3.77;;;2.20;;
10565;SDS011;5331;48.148;16.326;2023-11-21T05:50:37;3.87;;;2.30;;
10565;SDS011;5331;48.148;16.326;2023-11-21T06:11:32;4.93;;;2.40;;
10565;SDS011;5331;48.148;16.326;2023-11-21T06:13:58;4.30;;;2.57;;
10565;SDS011;5331;48.148;16.326;2023-11-21T06:16:24;5.93;;;2.60;;
10565;SDS011;5331;48.148;16.326;2023-11-21T06:18:50;3.47;;;2.73;;
10565;SDS011;5331;48.148;16.326;2023-11-21T06:21:17;6.03;;;2.70;;
10565;SDS011;5331;48.148;16.326;2023-11-21T06:23:43;4.00;;;2.47;;
10565;SDS011;5331;48.148;16.326;2023-11-21T06:26:09;4.43;;;2.63;;
10565;SDS011;5331;48.148;16.326;2023-11-21T06:41:51;5.27;;;2.67;;
10565;SDS011;5331;48.148;16.326;2023-11-21T06:44:17;4.17;;;2.70;;
10565;SDS011;5331;48.148;16.326;2023-11-21T06:46:44;4.27;;;2.33;;
10565;SDS011;5331;48.148;16.326;2023-11-21T06:49:11;6.33;;;2.60;;
10565;SDS011;5331;48.148;16.326;2023-11-21T06:51:37;4.07;;;2.60;;
10565;SDS011;5331;48.148;16.326;2023-11-21T06:54:03;4.87;;;2.80;;
10565;SDS011;5331;48.148;16.326;2023-11-21T06:56:29;5.93;;;3.67;;
10565;SDS011;5331;48.148;16.326;2023-11-21T07:17:52;6.10;;;3.65;;
10565;SDS011;5331;48.148;16.326;2023-11-21T07:20:19;6.47;;;3.45;;
10565;SDS011;5331;48.148;16.326;2023-11-21T07:22:45;5.72;;;3.80;;
10565;SDS011;5331;48.148;16.326;2023-11-21T07:25:11;4.33;;;3.73;;
10565;SDS011;5331;48.148;16.326;2023-11-21T07:27:38;8.13;;;6.03;;
10565;SDS011;5331;48.148;16.326;2023-11-21T07:30:04;12.13;;;4.47;;
10565;SDS011;5331;48.148;16.326;2023-11-21T07:32:33;6.30;;;3.67;;
10565;SDS011;5331;48.148;16.326;2023-11-21T07:34:59;9.37;;;4.20;;
10565;SDS011;5331;48.148;16.326;2023-11-21T07:55:18;10.48;;;4.00;;
10565;SDS011;5331;48.148;16.326;2023-11-21T07:57:44;8.70;;;3.67;;
10565;SDS011;5331;48.148;16.326;2023-11-21T08:00:10;6.38;;;2.90;;
10565;SDS011;5331;48.148;16.326;2023-11-21T08:02:38;7.57;;;2.75;;
10565;SDS011;5331;48.148;16.326;2023-11-21T08:05:05;10.02;;;3.25;;
10565;SDS011;5331;48.148;16.326;2023-11-21T08:07:32;14.38;;;3.15;;
10565;SDS011;5331;48.148;16.326;2023-11-21T08:09:58;10.40;;;3.25;;
10565;SDS011;5331;48.148;16.326;2023-11-21T08:29:54;14.82;;;7.72;;
10565;SDS011;5331;48.148;16.326;2023-11-21T08:32:22;9.30;;;4.75;;
10565;SDS011;5331;48.148;16.326;2023-11-21T08:34:48;8.07;;;4.68;;
10565;SDS011;5331;48.148;16.326;2023-11-21T08:37:16;6.03;;;3.33;;
10565;SDS011;5331;48.148;16.326;2023-11-21T08:39:43;9.85;;;4.10;;
10565;SDS011;5331;48.148;16.326;2023-11-21T08:42:09;10.77;;;3.95;;
10565;SDS011;5331;48.148;16.326;2023-11-21T08:44:35;3.85;;;2.15;;
10565;SDS011;5331;48.148;16.326;2023-11-21T09:00:14;6.45;;;2.70;;
10565;SDS011;5331;48.148;16.326;2023-11-21T09:02:42;4.07;;;2.78;;
10565;SDS011;5331;48.148;16.326;2023-11-21T09:05:08;3.75;;;2.53;;
10565;SDS011;5331;48.148;16.326;2023-11-21T09:07:35;4.90;;;3.10;;
10565;SDS011;5331;48.148;16.326;2023-11-21T09:10:01;5.78;;;2.67;;
10565;SDS011;5331;48.148;16.326;2023-11-21T09:12:27;6.65;;;2.67;;
10565;SDS011;5331;48.148;16.326;2023-11-21T09:14:53;6.43;;;2.30;;
10565;SDS011;5331;48.148;16.326;2023-11-21T09:30:22;8.85;;;5.80;;
10565;SDS011;5331;48.148;16.326;2023-11-21T09:32:49;18.33;;;10.68;;
10565;SDS011;5331;48.148;16.326;2023-11-21T09:35:15;3.80;;;2.65;;
10565;SDS011;5331;48.148;16.326;2023-11-21T09:37:42;3.30;;;1.60;;
10565;SDS011;5331;48.148;16.326;2023-11-21T09:40:10;4.05;;;1.67;;
10565;SDS011;5331;48.148;16.326;2023-11-21T09:42:39;4.53;;;1.92;;
10565;SDS011;5331;48.148;16.326;2023-11-21T09:45:12;5.35;;;1.75;;
10565;SDS011;5331;48.148;16.326;2023-11-21T10:03:09;8.43;;;1.90;;
10565;SDS011;5331;48.148;16.326;2023-11-21T10:05:36;3.28;;;1.40;;
10565;SDS011;5331;48.148;16.326;2023-11-21T10:08:04;10.55;;;3.95;;
10565;SDS011;5331;48.148;16.326;2023-11-21T10:10:33;1.73;;;1.30;;
10565;SDS011;5331;48.148;16.326;2023-11-21T10:13:01;8.63;;;2.30;;
10565;SDS011;5331;48.148;16.326;2023-11-21T10:15:29;2.85;;;1.50;;
10565;SDS011;5331;48.148;16.326;2023-11-21T10:17:56;3.40;;;2.13;;
10565;SDS011;5331;48.148;16.326;2023-11-21T10:20:23;14.20;;;5.75;;
10565;SDS011;5331;48.148;16.326;2023-11-21T10:40:39;6.13;;;1.45;;
10565;SDS011;5331;48.148;16.326;2023-11-21T10:43:06;11.25;;;6.03;;
10565;SDS011;5331;48.148;16.326;2023-11-21T10:45:34;11.85;;;7.10;;
10565;SDS011;5331;48.148;16.326;2023-11-21T10:48:00;2.50;;;1.50;;
10565;SDS011;5331;48.148;16.326;2023-11-21T10:50:26;1.73;;;1.60;;
10565;SDS011;5331;48.148;16.326;2023-11-21T10:52:52;4.07;;;1.40;;
10565;SDS011;5331;48.148;16.326;2023-11-21T10:55:19;2.20;;;1.48;;
10565;SDS011;5331;48.148;16.326;2023-11-21T11:13:13;5.65;;;1.88;;
10565;SDS011;5331;48.148;16.326;2023-11-21T11:15:40;3.25;;;1.58;;
10565;SDS011;5331;48.148;16.326;2023-11-21T11:18:08;1.50;;;1.40;;
10565;SDS011;5331;48.148;16.326;2023-11-21T11:20:34;2.67;;;1.45;;
10565;SDS011;5331;48.148;16.326;2023-11-21T11:23:14;2.08;;;1.40;;
10565;SDS011;5331;48.148;16.326;2023-11-21T11:25:58;3.50;;;1.60;;
10565;SDS011;5331;48.148;16.326;2023-11-21T11:28:38;9.48;;;1.67;;
10565;SDS011;5331;48.148;16.326;2023-11-21T12:00:45;5.45;;;1.63;;
10565;SDS011;5331;48.148;16.326;2023-11-21T12:03:17;2.70;;;1.50;;
10565;SDS011;5331;48.148;16.326;2023-11-21T12:05:43;6.45;;;2.20;;
10565;SDS011;5331;48.148;16.326;2023-11-21T12:08:14;2.97;;;1.70;;
10565;SDS011;5331;48.148;16.326;2023-11-21T12:10:42;6.65;;;2.15;;
10565;SDS011;5331;48.148;16.326;2023-11-21T12:13:10;10.43;;;2.00;;
10565;SDS011;5331;48.148;16.326;2023-11-21T12:15:38;13.23;;;2.83;;
10565;SDS011;5331;48.148;16.326;2023-11-21T12:18:07;4.18;;;2.20;;
10565;SDS011;5331;48.148;16.326;2023-11-21T12:20:35;12.35;;;3.70;;
10565;SDS011;5331;48.148;16.326;2023-11-21T12:23:03;4.53;;;2.88;;
10565;SDS011;5331;48.148;16.326;2023-11-21T12:40:57;2.78;;;1.45;;
10565;SDS011;5331;48.148;16.326;2023-11-21T12:43:24;12.52;;;2.90;;
10565;SDS011;5331;48.148;16.326;2023-11-21T12:45:50;13.82;;;2.95;;
10565;SDS011;5331;48.148;16.326;2023-11-21T12:48:18;5.38;;;2.00;;
10565;SDS011;5331;48.148;16.326;2023-11-21T12:50:49;7.15;;;1.77;;
10565;SDS011;5331;48.148;16.326;2023-11-21T12:53:18;8.23;;;2.10;;
10565;SDS011;5331;48.148;16.326;2023-11-21T12:55:44;2.33;;;1.33;;
10565;SDS011;5331;48.148;16.326;2023-11-21T13:12:24;3.85;;;1.95;;
10565;SDS011;5331;48.148;16.326;2023-11-21T13:14:50;4.97;;;2.80;;
10565;SDS011;5331;48.148;16.326;2023-11-21T13:17:17;4.30;;;3.00;;
10565;SDS011;5331;48.148;16.326;2023-11-21T13:19:43;7.75;;;3.83;;
10565;SDS011;5331;48.148;16.326;2023-11-21T13:22:09;3.80;;;1.50;;
10565;SDS011;5331;48.148;16.326;2023-11-21T13:24:36;14.50;;;3.20;;
10565;SDS011;5331;48.148;16.326;2023-11-21T13:27:02;6.80;;;1.90;;
10565;SDS011;5331;48.148;16.326;2023-11-21T13:42:33;2.85;;;1.80;;
10565;SDS011;5331;48.148;16.326;2023-11-21T13:44:59;5.30;;;2.10;;
10565;SDS011;5331;48.148;16.326;2023-11-21T13:47:25;6.28;;;2.45;;
10565;SDS011;5331;48.148;16.326;2023-11-21T13:49:54;6.80;;;1.83;;
10565;SDS011;5331;48.148;16.326;2023-11-21T13:52:21;7.70;;;2.10;;
10565;SDS011;5331;48.148;16.326;2023-11-21T13:54:51;6.43;;;1.88;;
10565;SDS011;5331;48.148;16.326;2023-11-21T13:57:17;8.02;;;3.15;;
10565;SDS011;5331;48.148;16.326;2023-11-21T14:13:04;4.03;;;1.70;;
10565;SDS011;5331;48.148;16.326;2023-11-21T14:15:30;2.58;;;1.50;;
10565;SDS011;5331;48.148;16.326;2023-11-21T14:17:58;29.58;;;6.22;;
10565;SDS011;5331;48.148;16.326;2023-11-21T14:20:27;3.88;;;1.90;;
10565;SDS011;5331;48.148;16.326;2023-11-21T14:22:55;5.30;;;2.10;;
10565;SDS011;5331;48.148;16.326;2023-11-21T14:25:21;3.00;;;2.63;;
10565;SDS011;5331;48.148;16.326;2023-11-21T14:27:47;9.48;;;2.90;;
10565;SDS011;5331;48.148;16.326;2023-11-21T14:48:05;4.68;;;2.22;;
10565;SDS011;5331;48.148;16.326;2023-11-21T14:50:40;6.15;;;2.47;;
10565;SDS011;5331;48.148;16.326;2023-11-21T14:53:35;3.63;;;2.47;;
10565;SDS011;5331;48.148;16.326;2023-11-21T14:56:08;5.38;;;2.85;;
10565;SDS011;5331;48.148;16.326;2023-11-21T14:58:35;3.22;;;2.58;;
10565;SDS011;5331;48.148;16.326;2023-11-21T15:01:04;7.93;;;4.30;;
10565;SDS011;5331;48.148;16.326;2023-11-21T15:03:33;7.10;;;5.28;;
10565;SDS011;5331;48.148;16.326;2023-11-21T15:21:47;3.58;;;2.30;;
10565;SDS011;5331;48.148;16.326;2023-11-21T15:24:14;2.40;;;2.20;;
10565;SDS011;5331;48.148;16.326;2023-11-21T15:26:40;3.17;;;2.60;;
10565;SDS011;5331;48.148;16.326;2023-11-21T15:29:06;4.45;;;2.30;;
10565;SDS011;5331;48.148;16.326;2023-11-21T15:31:32;3.65;;;2.75;;
10565;SDS011;5331;48.148;16.326;2023-11-21T15:33:59;3.08;;;2.70;;
10565;SDS011;5331;48.148;16.326;2023-11-21T15:36:25;2.95;;;2.50;;
10565;SDS011;5331;48.148;16.326;2023-11-21T15:38:53;3.58;;;2.50;;
10565;SDS011;5331;48.148;16.326;2023-11-21T15:59:07;4.00;;;2.75;;
10565;SDS011;5331;48.148;16.326;2023-11-21T16:01:35;3.65;;;2.88;;
10565;SDS011;5331;48.148;16.326;2023-11-21T16:04:07;3.53;;;2.70;;
10565;SDS011;5331;48.148;16.326;2023-11-21T16:06:33;3.97;;;2.90;;
10565;SDS011;5331;48.148;16.326;2023-11-21T16:09:04;4.22;;;2.85;;
10565;SDS011;5331;48.148;16.326;2023-11-21T16:11:31;3.75;;;2.75;;
10565;SDS011;5331;48.148;16.326;2023-11-21T16:13:58;4.55;;;2.88;;
10565;SDS011;5331;48.148;16.326;2023-11-21T16:31:46;3.80;;;3.20;;
10565;SDS011;5331;48.148;16.326;2023-11-21T16:34:14;5.53;;;4.00;;
10565;SDS011;5331;48.148;16.326;2023-11-21T16:36:41;6.22;;;3.42;;
10565;SDS011;5331;48.148;16.326;2023-11-21T16:39:07;4.90;;;3.80;;
10565;SDS011;5331;48.148;16.326;2023-11-21T16:41:35;5.93;;;3.90;;
10565;SDS011;5331;48.148;16.326;2023-11-21T16:44:01;4.85;;;3.70;;
10565;SDS011;5331;48.148;16.326;2023-11-21T16:46:27;3.95;;;3.58;;
10565;SDS011;5331;48.148;16.326;2023-11-21T17:06:42;7.05;;;5.00;;
10565;SDS011;5331;48.148;16.326;2023-11-21T17:09:08;6.20;;;4.50;;
10565;SDS011;5331;48.148;16.326;2023-11-21T17:11:35;9.07;;;4.97;;
10565;SDS011;5331;48.148;16.326;2023-11-21T17:14:02;6.50;;;4.70;;
10565;SDS011;5331;48.148;16.326;2023-11-21T17:16:30;7.47;;;5.68;;
10565;SDS011;5331;48.148;16.326;2023-11-21T17:18:58;10.23;;;8.00;;
10565;SDS011;5331;48.148;16.326;2023-11-21T17:21:24;7.38;;;5.80;;
10565;SDS011;5331;48.148;16.326;2023-11-21T17:37:00;7.53;;;6.80;;
10565;SDS011;5331;48.148;16.326;2023-11-21T17:39:29;7.10;;;6.40;;
10565;SDS011;5331;48.148;16.326;2023-11-21T17:41:56;8.00;;;5.72;;
10565;SDS011;5331;48.148;16.326;2023-11-21T17:44:22;5.03;;;4.53;;
10565;SDS011;5331;48.148;16.326;2023-11-21T17:46:49;5.25;;;4.57;;
10565;SDS011;5331;48.148;16.326;2023-11-21T17:49:15;5.18;;;4.63;;
10565;SDS011;5331;48.148;16.326;2023-11-21T17:51:41;5.78;;;4.95;;
10565;SDS011;5331;48.148;16.326;2023-11-21T17:54:08;6.03;;;4.50;;
10565;SDS011;5331;48.148;16.326;2023-11-21T18:14:26;6.88;;;5.00;;
10565;SDS011;5331;48.148;16.326;2023-11-21T18:16:52;4.60;;;3.70;;
10565;SDS011;5331;48.148;16.326;2023-11-21T18:19:19;5.70;;;4.05;;
10565;SDS011;5331;48.148;16.326;2023-11-21T18:21:45;4.15;;;3.30;;
10565;SDS011;5331;48.148;16.326;2023-11-21T18:24:11;3.53;;;3.22;;
10565;SDS011;5331;48.148;16.326;2023-11-21T18:26:37;3.60;;;3.10;;
10565;SDS011;5331;48.148;16.326;2023-11-21T18:29:03;4.50;;;3.60;;
10565;SDS011;5331;48.148;16.326;2023-11-21T18:45:46;3.53;;;3.22;;
10565;SDS011;5331;48.148;16.326;2023-11-21T18:48:12;3.40;;;3.20;;
10565;SDS011;5331;48.148;16.326;2023-11-21T18:50:40;3.65;;;3.35;;
10565;SDS011;5331;48.148;16.326;2023-11-21T18:53:06;4.25;;;3.85;;
10565;SDS011;5331;48.148;16.326;2023-11-21T18:55:33;4.10;;;3.80;;
10565;SDS011;5331;48.148;16.326;2023-11-21T18:58:00;5.03;;;4.20;;
10565;SDS011;5331;48.148;16.326;2023-11-21T19:00:26;4.20;;;3.90;;
10565;SDS011;5331;48.148;16.326;2023-11-21T19:15:56;5.25;;;4.85;;
10565;SDS011;5331;48.148;16.326;2023-11-21T19:18:23;6.32;;;4.65;;
10565;SDS011;5331;48.148;16.326;2023-11-21T19:20:49;5.72;;;5.07;;
10565;SDS011;5331;48.148;16.326;2023-11-21T19:23:16;7.15;;;5.40;;
10565;SDS011;5331;48.148;16.326;2023-11-21T19:25:42;6.72;;;5.22;;
10565;SDS011;5331;48.148;16.326;2023-11-21T19:28:09;7.43;;;5.65;;
10565;SDS011;5331;48.148;16.326;2023-11-21T19:30:35;8.60;;;5.95;;
10565;SDS011;5331;48.148;16.326;2023-11-21T19:50:52;11.33;;;6.93;;
10565;SDS011;5331;48.148;16.326;2023-11-21T19:53:18;10.77;;;7.57;;
10565;SDS011;5331;48.148;16.326;2023-11-21T19:55:44;9.63;;;6.67;;
10565;SDS011;5331;48.148;16.326;2023-11-21T19:58:11;7.93;;;7.03;;
10565;SDS011;5331;48.148;16.326;2023-11-21T20:00:39;10.50;;;7.50;;
10565;SDS011;5331;48.148;16.326;2023-11-21T20:03:05;7.10;;;6.13;;
10565;SDS011;5331;48.148;16.326;2023-11-21T20:05:31;5.75;;;5.25;;
10565;SDS011;5331;48.148;16.326;2023-11-21T20:07:58;6.23;;;5.30;;
10565;SDS011;5331;48.148;16.326;2023-11-21T20:28:02;6.30;;;5.70;;
10565;SDS011;5331;48.148;16.326;2023-11-21T20:30:29;6.78;;;5.82;;
10565;SDS011;5331;48.148;16.326;2023-11-21T20:32:57;7.50;;;5.72;;
10565;SDS011;5331;48.148;16.326;2023-11-21T20:35:23;6.53;;;5.78;;
10565;SDS011;5331;48.148;16.326;2023-11-21T20:37:50;7.60;;;6.90;;
10565;SDS011;5331;48.148;16.326;2023-11-21T20:40:16;6.97;;;6.28;;
10565;SDS011;5331;48.148;16.326;2023-11-21T20:42:43;7.90;;;6.67;;
10565;SDS011;5331;48.148;16.326;2023-11-21T20:45:12;6.80;;;6.10;;
10565;SDS011;5331;48.148;16.326;2023-11-21T21:03:05;7.43;;;6.28;;
10565;SDS011;5331;48.148;16.326;2023-11-21T21:05:32;6.20;;;5.60;;
10565;SDS011;5331;48.148;16.326;2023-11-21T21:07:58;6.63;;;5.60;;
10565;SDS011;5331;48.148;16.326;2023-11-21T21:10:24;6.57;;;5.88;;
10565;SDS011;5331;48.148;16.326;2023-11-21T21:12:50;6.40;;;5.80;;
10565;SDS011;5331;48.148;16.326;2023-11-21T21:15:17;7.10;;;6.40;;
10565;SDS011;5331;48.148;16.326;2023-11-21T21:17:43;7.53;;;6.73;;
10565;SDS011;5331;48.148;16.326;2023-11-21T21:38:05;6.28;;;5.60;;
10565;SDS011;5331;48.148;16.326;2023-11-21T21:40:32;6.03;;;5.45;;
10565;SDS011;5331;48.148;16.326;2023-11-21T21:42:59;6.00;;;5.40;;
10565;SDS011;5331;48.148;16.326;2023-11-21T21:45:26;6.80;;;5.88;;
10565;SDS011;5331;48.148;16.326;2023-11-21T21:47:53;6.53;;;5.85;;
10565;SDS011;5331;48.148;16.326;2023-11-21T21:50:19;8.70;;;6.80;;
10565;SDS011;5331;48.148;16.326;2023-11-21T21:52:46;8.07;;;6.63;;
10565;SDS011;5331;48.148;16.326;2023-11-21T22:12:24;8.50;;;6.85;;
10565;SDS011;5331;48.148;16.326;2023-11-21T22:14:51;8.50;;;7.07;;
10565;SDS011;5331;48.148;16.326;2023-11-21T22:17:17;7.20;;;6.50;;
10565;SDS011;5331;48.148;16.326;2023-11-21T22:19:43;7.68;;;6.60;;
10565;SDS011;5331;48.148;16.326;2023-11-21T22:22:11;7.55;;;6.38;;
10565;SDS011;5331;48.148;16.326;2023-11-21T22:24:37;8.45;;;6.63;;
10565;SDS011;5331;48.148;16.326;2023-11-21T22:27:03;7.93;;;6.82;;
10565;SDS011;5331;48.148;16.326;2023-11-21T22:47:17;7.70;;;6.90;;
10565;SDS011;5331;48.148;16.326;2023-11-21T22:49:46;7.90;;;6.67;;
10565;SDS011;5331;48.148;16.326;2023-11-21T22:52:13;7.67;;;6.50;;
10565;SDS011;5331;48.148;16.326;2023-11-21T22:54:39;6.93;;;6.27;;
10565;SDS011;5331;48.148;16.326;2023-11-21T22:57:05;10.03;;;6.40;;
10565;SDS011;5331;48.148;16.326;2023-11-21T22:59:31;7.43;;;6.30;;
10565;SDS011;5331;48.148;16.326;2023-11-21T23:01:57;6.80;;;6.20;;
10565;SDS011;5331;48.148;16.326;2023-11-21T23:19:52;6.78;;;5.47;;
10565;SDS011;5331;48.148;16.326;2023-11-21T23:22:18;6.32;;;5.40;;
10565;SDS011;5331;48.148;16.326;2023-11-21T23:24:45;6.35;;;5.85;;
10565;SDS011;5331;48.148;16.326;2023-11-21T23:27:13;5.75;;;5.25;;
10565;SDS011;5331;48.148;16.326;2023-11-21T23:29:39;5.90;;;5.38;;
10565;SDS011;5331;48.148;16.326;2023-11-21T23:32:09;6.30;;;5.70;;
10565;SDS011;5331;48.148;16.326;2023-11-21T23:34:36;7.63;;;5.80;;
10565;SDS011;5331;48.148;16.326;2023-11-21T23:50:05;6.47;;;5.70;;
10565;SDS011;5331;48.148;16.326;2023-11-21T23:52:31;6.93;;;6.10;;
10565;SDS011;5331;48.148;16.326;2023-11-21T23:54:57;6.70;;;6.00;;
10565;SDS011;5331;48.148;16.326;2023-11-21T23:57:24;7.40;;;6.13;;
10565;SDS011;5331;48.148;16.326;2023-11-21T23:59:50;8.00;;;6.00;;
